Time;durP1;ratioP1;P1;durP2;ratioP2;P2;SDS_P1;SDS_P2;PMS_P1;PMS_P2;Temp;Humidity;BMP_temperature;BMP_pressure;BME280_temperature;BME280_humidity;BME280_pressure;Samples;Min_cycle;Max_cycle;Signal;HPM_P1;HPM_P2
2023/08/23 04:02:25;;;;;;;3.83;2.40;;;24.40;73.20;;;;;;5186981;23;20503;-72
2023/08/23 04:04:51;;;;;;;2.87;2.20;;;24.30;73.40;;;;;;4919877;29;20472;-71
2023/08/23 04:07:18;;;;;;;2.27;2.07;;;24.20;73.50;;;;;;4919741;29;20441;-72
2023/08/23 04:09:45;;;;;;;3.20;2.27;;;24.30;73.30;;;;;;4919464;29;20917;-72
2023/08/23 04:12:12;;;;;;;3.90;2.80;;;24.30;73.40;;;;;;4919782;29;20487;-71
2023/08/23 04:17:08;;;;;;;2.70;2.40;;;24.40;73.20;;;;;;4941110;23;20551;-75
2023/08/23 04:19:36;;;;;;;3.50;2.47;;;24.30;73.40;;;;;;4919603;29;20480;-75
2023/08/23 04:22:03;;;;;;;2.43;2.20;;;24.30;73.40;;;;;;4919489;29;20794;-75
2023/08/23 04:24:30;;;;;;;3.27;2.63;;;24.20;73.50;;;;;;4919515;29;20456;-75
2023/08/23 04:26:56;;;;;;;2.83;2.50;;;24.10;73.90;;;;;;4919429;29;20506;-75
2023/08/23 04:29:23;;;;;;;2.73;2.53;;;24.10;73.90;;;;;;4919419;29;20448;-75
2023/08/23 04:31:50;;;;;;;2.70;2.23;;;24.10;74.20;;;;;;4919362;29;20516;-75
2023/08/23 04:34:16;;;;;;;3.50;2.40;;;24.20;74.00;;;;;;4919358;29;20449;-75
2023/08/23 04:36:44;;;;;;;3.07;2.37;;;24.20;73.90;;;;;;4919242;29;20468;-75
2023/08/23 04:39:12;;;;;;;2.97;2.40;;;24.20;73.80;;;;;;4919279;29;20458;-75
2023/08/23 04:41:39;;;;;;;2.50;2.20;;;24.30;73.60;;;;;;4919193;29;20449;-75
2023/08/23 04:44:06;;;;;;;3.77;2.50;;;24.30;73.60;;;;;;4919163;29;20444;-75
2023/08/23 04:46:32;;;;;;;2.50;2.27;;;24.20;74.00;;;;;;4919052;29;20475;-75
2023/08/23 04:48:59;;;;;;;2.97;2.20;;;24.10;74.10;;;;;;4919074;29;20455;-75
2023/08/23 04:51:26;;;;;;;2.77;2.30;;;24.10;74.30;;;;;;4919067;29;20484;-75
2023/08/23 04:53:54;;;;;;;3.43;2.40;;;24.20;74.30;;;;;;4918685;29;20457;-75
2023/08/23 04:56:21;;;;;;;3.43;2.33;;;24.20;74.20;;;;;;4918821;29;20472;-76
2023/08/23 04:58:47;;;;;;;3.20;2.90;;;24.10;74.40;;;;;;4918911;29;20449;-75
2023/08/23 05:01:15;;;;;;;3.13;2.83;;;24.10;74.40;;;;;;4918801;29;20500;-75
2023/08/23 05:03:42;;;;;;;2.70;2.20;;;24.20;74.10;;;;;;4918776;29;20893;-75
2023/08/23 05:06:08;;;;;;;3.60;2.10;;;24.20;73.90;;;;;;4918672;29;20892;-74
2023/08/23 05:08:35;;;;;;;2.97;2.30;;;24.30;73.80;;;;;;4918719;29;20449;-75
2023/08/23 05:11:03;;;;;;;3.10;2.80;;;24.30;73.70;;;;;;4918594;29;20448;-75
2023/08/23 05:13:30;;;;;;;3.63;2.73;;;24.40;73.60;;;;;;4918597;29;20500;-75
2023/08/23 05:15:58;;;;;;;3.43;2.33;;;24.50;73.50;;;;;;4918371;29;20493;-75
2023/08/23 05:18:25;;;;;;;2.70;2.50;;;24.60;73.20;;;;;;4918035;29;20440;-75
2023/08/23 05:20:55;;;;;;;2.57;2.00;;;24.70;73.00;;;;;;4918164;29;20453;-75
2023/08/23 05:23:22;;;;;;;3.20;2.90;;;24.80;73.10;;;;;;4918407;29;20442;-75
2023/08/23 05:25:50;;;;;;;2.83;2.37;;;24.90;73.00;;;;;;4918328;29;20464;-75
2023/08/23 05:28:19;;;;;;;2.87;2.00;;;25.00;72.40;;;;;;4918296;29;20449;-75
2023/08/23 05:30:46;;;;;;;3.03;2.50;;;25.00;72.50;;;;;;4918004;29;20859;-75
2023/08/23 05:33:13;;;;;;;3.20;2.90;;;25.10;72.60;;;;;;4918213;29;20864;-75
2023/08/23 05:35:40;;;;;;;2.53;2.00;;;25.20;72.40;;;;;;4918142;29;20487;-75
2023/08/23 05:38:07;;;;;;;3.07;2.23;;;25.40;71.80;;;;;;4918063;29;20563;-75
2023/08/23 05:40:34;;;;;;;3.10;2.10;;;25.40;71.30;;;;;;4918212;29;20452;-74
2023/08/23 05:43:00;;;;;;;3.40;2.70;;;25.30;71.80;;;;;;4918073;29;20452;-75
2023/08/23 05:45:28;;;;;;;2.60;2.20;;;25.50;71.70;;;;;;4917968;29;20524;-75
2023/08/23 05:47:56;;;;;;;3.80;2.43;;;25.70;71.50;;;;;;4917924;29;20451;-75
2023/08/23 05:50:23;;;;;;;3.20;2.33;;;25.80;71.40;;;;;;4917661;29;20982;-74
2023/08/23 05:52:50;;;;;;;2.40;2.13;;;26.00;70.60;;;;;;4917520;29;21019;-75
2023/08/23 05:55:17;;;;;;;2.63;2.23;;;26.20;69.90;;;;;;4917814;29;20472;-75
2023/08/23 05:57:44;;;;;;;2.33;1.90;;;26.30;69.50;;;;;;4917504;29;20448;-75
2023/08/23 06:00:11;;;;;;;2.10;1.80;;;26.50;69.50;;;;;;4918670;29;20452;-77
2023/08/23 06:02:39;;;;;;;3.20;2.33;;;26.60;68.80;;;;;;4917748;29;20453;-74
2023/08/23 06:05:07;;;;;;;2.87;2.57;;;26.80;68.40;;;;;;4917670;29;20473;-74
2023/08/23 06:07:34;;;;;;;2.60;2.40;;;26.80;68.50;;;;;;4917780;29;20452;-75
2023/08/23 06:10:00;;;;;;;3.30;2.60;;;26.50;68.70;;;;;;4917771;29;20449;-75
2023/08/23 06:12:27;;;;;;;4.20;2.13;;;26.30;69.30;;;;;;4917857;29;20575;-75
2023/08/23 06:14:54;;;;;;;5.00;2.30;;;26.30;69.60;;;;;;4917493;29;20448;-75
2023/08/23 06:17:20;;;;;;;2.83;2.40;;;26.60;69.60;;;;;;4917624;29;20802;-75
2023/08/23 06:19:49;;;;;;;3.10;2.00;;;26.90;69.10;;;;;;4917469;29;20520;-75
2023/08/23 06:22:15;;;;;;;3.10;2.40;;;27.20;67.40;;;;;;4917402;29;20445;-74
2023/08/23 06:24:42;;;;;;;2.63;2.00;;;27.40;66.70;;;;;;4917336;29;20440;-76
2023/08/23 06:27:09;;;;;;;2.77;2.33;;;27.50;66.90;;;;;;4917284;29;20475;-75
2023/08/23 06:29:38;;;;;;;2.73;2.33;;;27.50;66.90;;;;;;4916731;29;20452;-79
2023/08/23 06:32:06;;;;;;;4.30;2.47;;;27.80;66.20;;;;;;4917832;29;20575;-74
2023/08/23 06:34:33;;;;;;;3.23;2.30;;;28.00;66.50;;;;;;4916990;29;20947;-74
2023/08/23 06:37:01;;;;;;;2.83;2.10;;;27.80;65.40;;;;;;4917167;29;20851;-75
2023/08/23 06:39:27;;;;;;;2.30;2.10;;;27.40;66.90;;;;;;4917262;29;20449;-75
2023/08/23 06:41:54;;;;;;;3.27;2.30;;;27.40;67.50;;;;;;4917235;29;20437;-75
2023/08/23 06:44:21;;;;;;;2.90;2.60;;;27.10;67.80;;;;;;4917272;29;20484;-75
2023/08/23 06:46:47;;;;;;;4.20;2.53;;;27.40;68.00;;;;;;4916690;29;20989;-76
2023/08/23 06:49:14;;;;;;;2.97;2.47;;;27.60;67.50;;;;;;4917109;29;20444;-75
2023/08/23 06:51:41;;;;;;;4.90;2.90;;;27.60;66.50;;;;;;4917051;29;20449;-75
2023/08/23 06:54:08;;;;;;;3.00;2.57;;;27.30;67.20;;;;;;4917099;29;20453;-75
2023/08/23 06:56:36;;;;;;;3.43;2.60;;;27.10;67.10;;;;;;4916974;29;20472;-74
2023/08/23 06:59:03;;;;;;;4.47;2.90;;;27.50;67.20;;;;;;4916789;29;20966;-74
2023/08/23 07:01:29;;;;;;;3.20;2.70;;;27.50;66.70;;;;;;4917489;29;20452;-75
2023/08/23 07:03:56;;;;;;;3.23;2.17;;;27.70;65.20;;;;;;4916836;29;20957;-74
2023/08/23 07:06:23;;;;;;;2.73;2.50;;;27.40;66.00;;;;;;4916942;29;20469;-75
2023/08/23 07:08:49;;;;;;;3.70;2.67;;;27.90;65.70;;;;;;4916910;29;20504;-75
2023/08/23 07:11:17;;;;;;;4.03;2.50;;;27.80;66.40;;;;;;4916894;29;20452;-75
2023/08/23 07:13:44;;;;;;;2.20;1.97;;;28.00;65.50;;;;;;4916888;29;20495;-75
2023/08/23 07:16:10;;;;;;;3.33;2.47;;;28.30;63.90;;;;;;4916387;29;20994;-75
2023/08/23 07:18:38;;;;;;;2.60;2.30;;;28.50;64.40;;;;;;4916801;29;20452;-75
2023/08/23 07:21:04;;;;;;;11.00;3.03;;;28.60;64.00;;;;;;4916824;29;20451;-74
2023/08/23 07:23:31;;;;;;;3.53;2.97;;;28.20;64.10;;;;;;4916813;29;20473;-74
2023/08/23 07:25:58;;;;;;;2.87;2.50;;;28.30;63.80;;;;;;4916456;29;20501;-74
2023/08/23 07:28:28;;;;;;;4.50;2.37;;;28.60;64.00;;;;;;4916849;29;20821;-73
2023/08/23 07:30:57;;;;;;;2.87;2.57;;;28.70;63.60;;;;;;4916636;29;20484;-74
2023/08/23 07:33:23;;;;;;;4.37;2.83;;;28.70;63.50;;;;;;4916367;29;21088;-74
2023/08/23 07:35:55;;;;;;;3.33;2.20;;;28.60;64.10;;;;;;4916607;29;20484;-74
2023/08/23 07:38:21;;;;;;;3.17;2.53;;;28.30;64.90;;;;;;4917501;29;20515;-74
2023/08/23 07:40:48;;;;;;;2.70;2.50;;;28.20;64.60;;;;;;4916732;29;20441;-74
2023/08/23 07:43:15;;;;;;;3.47;2.87;;;28.10;65.10;;;;;;4920281;29;20459;-73
2023/08/23 07:45:43;;;;;;;3.00;2.57;;;27.90;65.50;;;;;;4919894;29;20996;-74
2023/08/23 07:48:09;;;;;;;3.47;3.00;;;28.10;66.00;;;;;;4919882;29;21006;-74
2023/08/23 07:50:36;;;;;;;2.63;2.17;;;27.80;66.10;;;;;;4919830;29;20950;-74
2023/08/23 07:53:03;;;;;;;3.10;2.80;;;28.10;66.60;;;;;;4919745;29;20992;-74
2023/08/23 07:55:29;;;;;;;3.10;2.37;;;28.30;64.70;;;;;;4919988;29;20476;-74
2023/08/23 07:57:56;;;;;;;2.73;2.30;;;28.40;65.30;;;;;;4919709;29;20839;-74
2023/08/23 08:00:23;;;;;;;3.53;2.73;;;28.60;65.30;;;;;;4919851;29;20448;-74
2023/08/23 08:02:51;;;;;;;3.30;2.30;;;28.40;65.20;;;;;;4919871;29;20452;-73
2023/08/23 08:05:17;;;;;;;2.93;2.63;;;28.10;66.00;;;;;;4919757;29;20528;-74
2023/08/23 08:07:44;;;;;;;3.10;2.80;;;28.10;65.60;;;;;;4919540;29;20536;-74
2023/08/23 08:10:11;;;;;;;3.53;2.97;;;28.40;64.90;;;;;;4919715;29;20453;-74
2023/08/23 08:12:38;;;;;;;2.80;2.00;;;28.60;65.30;;;;;;4920160;29;20487;-74
2023/08/23 08:15:07;;;;;;;3.20;2.30;;;28.70;64.80;;;;;;4919384;29;20469;-74
2023/08/23 08:17:34;;;;;;;3.13;2.37;;;28.70;65.00;;;;;;4919660;29;20437;-74
2023/08/23 08:20:06;;;;;;;2.50;2.30;;;28.60;64.70;;;;;;4919261;29;20531;-74
2023/08/23 08:22:33;;;;;;;3.00;2.70;;;28.70;63.60;;;;;;4919539;29;20429;-74
2023/08/23 08:25:00;;;;;;;3.80;2.53;;;28.80;64.70;;;;;;4919362;29;20452;-73
2023/08/23 08:27:26;;;;;;;2.90;2.33;;;28.50;65.30;;;;;;4919436;29;20453;-74
2023/08/23 08:29:53;;;;;;;2.90;2.63;;;28.40;65.40;;;;;;4919385;29;20457;-74
2023/08/23 08:32:20;;;;;;;3.20;2.80;;;28.40;65.90;;;;;;4918892;29;20942;-73
2023/08/23 08:34:47;;;;;;;3.20;2.77;;;28.00;66.20;;;;;;4919152;29;20452;-74
2023/08/23 08:37:15;;;;;;;3.40;2.90;;;27.80;66.80;;;;;;4919221;29;20476;-73
2023/08/23 08:39:42;;;;;;;4.30;2.93;;;27.90;66.80;;;;;;4919230;29;20453;-74
2023/08/23 08:42:10;;;;;;;4.40;2.80;;;28.20;66.00;;;;;;4919222;29;20451;-74
2023/08/23 08:44:37;;;;;;;2.40;1.77;;;28.20;65.30;;;;;;4918785;29;20448;-72
2023/08/23 08:47:04;;;;;;;2.67;1.90;;;28.40;65.10;;;;;;4919220;29;20476;-76
2023/08/23 08:49:31;;;;;;;2.77;2.40;;;28.80;64.50;;;;;;4919076;29;20798;-74
2023/08/23 08:51:59;;;;;;;5.97;3.00;;;28.80;64.20;;;;;;4919008;29;20455;-73
2023/08/23 08:54:29;;;;;;;3.00;2.20;;;28.70;64.70;;;;;;4918013;29;20492;-76
2023/08/23 08:56:56;;;;;;;3.40;2.40;;;28.60;64.40;;;;;;4918560;29;21053;-76
2023/08/23 08:59:23;;;;;;;4.00;2.40;;;28.40;65.10;;;;;;4919680;29;20500;-75
2023/08/23 09:01:51;;;;;;;2.67;2.33;;;28.30;64.60;;;;;;4918835;29;20448;-75
2023/08/23 09:04:17;;;;;;;3.23;2.47;;;28.50;65.10;;;;;;4919054;29;20452;-75
2023/08/23 09:06:46;;;;;;;3.03;2.37;;;28.50;64.90;;;;;;4918876;29;20468;-74
2023/08/23 09:09:13;;;;;;;2.83;2.23;;;28.40;65.00;;;;;;4919453;29;20532;-72
2023/08/23 09:11:41;;;;;;;3.80;2.50;;;28.30;65.90;;;;;;4918325;29;20966;-73
2023/08/23 09:14:15;;;;;;;3.57;2.73;;;28.40;67.00;;;;;;4918596;29;20476;-74
2023/08/23 09:16:43;;;;;;;4.10;2.13;;;28.30;67.10;;;;;;4918304;29;20491;-75
2023/08/23 09:19:10;;;;;;;3.43;2.20;;;28.40;66.20;;;;;;4918699;29;20464;-75
2023/08/23 09:21:41;;;;;;;4.20;2.40;;;28.40;65.30;;;;;;4918698;29;20484;-75
2023/08/23 09:24:08;;;;;;;2.30;2.00;;;28.40;65.40;;;;;;4918715;29;20433;-75
2023/08/23 09:26:35;;;;;;;2.80;2.33;;;28.70;65.50;;;;;;4918478;29;20476;-76
2023/08/23 09:29:04;;;;;;;3.33;2.80;;;28.80;63.60;;;;;;4918465;29;20441;-74
2023/08/23 09:31:31;;;;;;;3.30;2.50;;;28.90;63.60;;;;;;4918188;29;20831;-75
2023/08/23 09:33:58;;;;;;;2.60;2.23;;;29.20;63.60;;;;;;4918179;29;20485;-74
2023/08/23 09:36:27;;;;;;;2.87;2.43;;;29.30;63.70;;;;;;4918113;29;20472;-75
2023/08/23 09:38:54;;;;;;;2.50;2.30;;;29.60;62.70;;;;;;4918200;29;20578;-74
2023/08/23 09:41:22;;;;;;;3.63;2.87;;;29.80;61.20;;;;;;4917879;29;20449;-74
2023/08/23 09:43:53;;;;;;;2.63;2.40;;;29.60;62.60;;;;;;4917947;29;20444;-74
2023/08/23 09:46:26;;;;;;;3.70;2.90;;;29.60;63.20;;;;;;4917924;29;20886;-74
2023/08/23 09:48:54;;;;;;;3.47;2.70;;;29.30;63.00;;;;;;4917957;29;20867;-74
2023/08/23 09:51:23;;;;;;;3.93;2.10;;;29.30;63.00;;;;;;4917968;29;20539;-74
2023/08/23 09:53:54;;;;;;;3.63;2.50;;;29.40;62.00;;;;;;4917844;29;20583;-75
2023/08/23 09:56:21;;;;;;;3.00;2.13;;;29.30;62.70;;;;;;4917569;29;20829;-75
2023/08/23 09:58:48;;;;;;;2.63;2.13;;;29.30;63.10;;;;;;4918009;29;20504;-75
2023/08/23 10:01:16;;;;;;;3.50;2.20;;;29.50;61.70;;;;;;4917890;29;20445;-73
2023/08/23 10:03:44;;;;;;;3.03;2.10;;;29.50;63.10;;;;;;4917673;29;20449;-74
2023/08/23 10:06:11;;;;;;;2.90;2.60;;;29.40;61.60;;;;;;4917648;29;20469;-74
2023/08/23 10:08:39;;;;;;;2.30;2.10;;;29.30;61.80;;;;;;4917771;29;20503;-76
2023/08/23 10:11:06;;;;;;;2.73;1.97;;;29.30;62.30;;;;;;4917350;29;20939;-76
2023/08/23 10:13:34;;;;;;;2.63;2.20;;;29.50;62.20;;;;;;4917264;29;21029;-76
2023/08/23 10:16:04;;;;;;;4.47;2.40;;;29.40;62.00;;;;;;4973306;23;20827;-71
2023/08/23 10:18:31;;;;;;;3.50;2.97;;;29.30;62.10;;;;;;4917518;29;20451;-71
2023/08/23 10:20:59;;;;;;;2.70;2.20;;;29.50;61.20;;;;;;4917464;29;20445;-72
2023/08/23 10:23:27;;;;;;;4.90;2.50;;;29.50;62.70;;;;;;4917525;29;20441;-72
2023/08/23 10:25:54;;;;;;;3.00;2.70;;;29.40;62.10;;;;;;4917303;29;20473;-71
2023/08/23 10:28:20;;;;;;;2.60;2.23;;;29.80;60.00;;;;;;4917547;29;20444;-72
2023/08/23 10:30:50;;;;;;;3.10;2.80;;;30.10;61.10;;;;;;4917761;29;20440;-71
2023/08/23 10:33:17;;;;;;;2.60;2.40;;;30.30;60.20;;;;;;4917692;29;20492;-71
2023/08/23 10:35:45;;;;;;;3.00;2.40;;;30.30;60.20;;;;;;4917473;29;20480;-72
2023/08/23 10:38:14;;;;;;;3.37;2.23;;;30.20;61.20;;;;;;4917849;29;20448;-72
2023/08/23 10:40:43;;;;;;;3.40;2.17;;;30.20;60.60;;;;;;4917711;29;20448;-72
2023/08/23 10:43:12;;;;;;;3.03;2.13;;;30.30;60.50;;;;;;4917501;29;20448;-71
2023/08/23 10:45:52;;;;;;;3.93;2.90;;;30.80;60.20;;;;;;4917211;29;20472;-72
2023/08/23 10:48:20;;;;;;;3.83;2.60;;;30.80;60.50;;;;;;4917515;29;20448;-72
2023/08/23 10:50:47;;;;;;;2.77;2.20;;;31.10;60.10;;;;;;4917255;29;20487;-72
2023/08/23 10:53:17;;;;;;;2.80;2.30;;;31.10;59.60;;;;;;4917271;29;20536;-73
2023/08/23 10:55:44;;;;;;;3.57;2.83;;;30.80;59.90;;;;;;4916886;29;20990;-72
2023/08/23 10:58:12;;;;;;;3.60;2.30;;;30.90;59.50;;;;;;4917663;29;20473;-72
2023/08/23 11:00:40;;;;;;;3.60;2.40;;;30.70;59.60;;;;;;4916952;29;20955;-73
2023/08/23 11:03:07;;;;;;;4.37;2.57;;;30.80;59.90;;;;;;4917199;29;20452;-73
2023/08/23 11:05:34;;;;;;;2.90;2.00;;;31.20;59.90;;;;;;4916859;29;20516;-71
2023/08/23 11:08:02;;;;;;;4.00;2.13;;;31.50;58.80;;;;;;4917032;29;20449;-72
2023/08/23 11:10:30;;;;;;;2.77;2.27;;;31.70;58.60;;;;;;4916704;29;20951;-72
2023/08/23 11:12:57;;;;;;;3.47;2.20;;;31.90;57.30;;;;;;4916923;29;20829;-72
2023/08/23 11:15:24;;;;;;;2.50;1.90;;;31.90;57.40;;;;;;4916690;29;20536;-72
2023/08/23 11:17:50;;;;;;;2.43;2.10;;;31.70;58.20;;;;;;4920147;29;20425;-72
2023/08/23 11:20:17;;;;;;;3.17;2.40;;;31.40;57.60;;;;;;4920665;29;20485;-72
2023/08/23 11:22:44;;;;;;;4.00;2.87;;;31.00;58.30;;;;;;4920598;29;20448;-71
2023/08/23 11:25:11;;;;;;;3.07;2.23;;;31.30;58.90;;;;;;4920454;29;20509;-72
2023/08/23 11:27:39;;;;;;;3.57;2.57;;;31.70;57.40;;;;;;4920463;29;20539;-71
2023/08/23 11:30:08;;;;;;;3.30;2.27;;;32.00;56.50;;;;;;4920600;29;20499;-72
2023/08/23 11:32:36;;;;;;;3.40;2.40;;;32.00;56.90;;;;;;4920510;29;20460;-72
2023/08/23 11:35:04;;;;;;;2.40;1.73;;;31.80;57.10;;;;;;4920513;29;20492;-71
2023/08/23 11:37:32;;;;;;;3.40;2.30;;;32.00;56.60;;;;;;4921167;29;20475;-71
2023/08/23 11:39:59;;;;;;;3.10;2.70;;;32.40;56.60;;;;;;4920451;29;20449;-72
2023/08/23 11:42:26;;;;;;;2.83;2.23;;;32.60;55.90;;;;;;4920019;29;20818;-71
2023/08/23 11:44:56;;;;;;;2.43;2.10;;;32.70;55.90;;;;;;4921188;29;20560;-72
2023/08/23 11:47:25;;;;;;;2.27;2.07;;;32.50;55.40;;;;;;4920093;29;20539;-72
2023/08/23 11:49:52;;;;;;;2.20;1.80;;;32.50;55.80;;;;;;4920149;29;20539;-72
2023/08/23 11:52:19;;;;;;;3.37;2.30;;;32.70;55.40;;;;;;4920103;29;20452;-72
2023/08/23 11:54:46;;;;;;;4.80;2.23;;;32.80;54.40;;;;;;4920268;29;20488;-72
2023/08/23 11:57:16;;;;;;;3.60;1.90;;;32.80;54.00;;;;;;4920423;29;20894;-71
2023/08/23 11:59:42;;;;;;;2.20;2.00;;;32.60;55.30;;;;;;4920314;29;20483;-71
2023/08/23 12:02:10;;;;;;;2.80;1.93;;;32.60;55.80;;;;;;4920095;29;20452;-71
2023/08/23 12:04:40;;;;;;;2.40;1.90;;;32.90;55.20;;;;;;4919878;29;20447;-72
2023/08/23 12:07:07;;;;;;;3.23;2.40;;;33.10;55.50;;;;;;4919843;29;21036;-73
2023/08/23 12:09:34;;;;;;;2.53;2.00;;;33.10;53.30;;;;;;4919758;29;20480;-71
2023/08/23 12:12:02;;;;;;;2.73;1.73;;;33.00;53.90;;;;;;4919734;29;20449;-71
2023/08/23 12:14:29;;;;;;;2.80;2.00;;;32.60;54.40;;;;;;4919612;29;20515;-70
2023/08/23 12:16:55;;;;;;;3.07;1.90;;;32.70;54.70;;;;;;4919335;29;20576;-71
2023/08/23 12:19:23;;;;;;;2.40;2.10;;;32.60;54.50;;;;;;4919557;29;20451;-72
2023/08/23 12:21:51;;;;;;;2.83;2.20;;;32.30;55.70;;;;;;4919541;29;20449;-73
2023/08/23 12:24:19;;;;;;;3.07;1.93;;;32.40;56.20;;;;;;4919470;29;20453;-72
2023/08/23 12:26:45;;;;;;;3.80;1.70;;;32.60;54.50;;;;;;4919326;29;20567;-72
2023/08/23 12:29:12;;;;;;;2.80;1.87;;;33.00;54.90;;;;;;4918225;29;20501;-71
2023/08/23 12:31:39;;;;;;;2.00;1.70;;;33.40;53.90;;;;;;4919335;29;20455;-71
2023/08/23 12:34:06;;;;;;;3.87;2.00;;;33.40;53.40;;;;;;4919191;29;20488;-71
2023/08/23 12:36:34;;;;;;;2.47;1.80;;;33.20;54.40;;;;;;4919248;29;20560;-71
2023/08/23 12:39:00;;;;;;;3.77;2.37;;;33.50;54.00;;;;;;4919315;29;20456;-72
2023/08/23 12:41:27;;;;;;;4.90;2.20;;;33.80;53.40;;;;;;4919264;29;20448;-72
2023/08/23 12:43:54;;;;;;;2.00;1.77;;;33.70;53.30;;;;;;4919423;29;20551;-72
2023/08/23 12:46:21;;;;;;;3.70;2.30;;;33.70;53.50;;;;;;4919181;29;20472;-72
2023/08/23 12:48:48;;;;;;;2.73;1.97;;;33.90;53.10;;;;;;4919269;29;20535;-72
2023/08/23 12:51:14;;;;;;;3.50;2.27;;;34.00;53.80;;;;;;4919054;29;20445;-72
2023/08/23 12:53:42;;;;;;;2.40;2.10;;;34.10;52.50;;;;;;4918941;29;20480;-72
2023/08/23 12:56:09;;;;;;;2.20;1.77;;;33.80;52.70;;;;;;4918852;29;20521;-72
2023/08/23 12:58:35;;;;;;;2.10;1.80;;;33.90;53.20;;;;;;4918863;29;20448;-71
2023/08/23 13:01:02;;;;;;;2.30;1.97;;;34.00;52.70;;;;;;4918900;29;20812;-72
2023/08/23 13:03:29;;;;;;;3.10;2.00;;;33.80;52.80;;;;;;4918820;29;20508;-71
2023/08/23 13:05:55;;;;;;;2.00;1.53;;;33.70;53.40;;;;;;4918672;29;20471;-72
2023/08/23 13:08:22;;;;;;;2.30;1.80;;;33.80;52.90;;;;;;4918711;29;20445;-72
2023/08/23 13:10:50;;;;;;;3.23;2.20;;;33.70;52.60;;;;;;4918641;29;20464;-72
2023/08/23 13:13:17;;;;;;;2.40;1.87;;;33.60;53.80;;;;;;4918706;29;20457;-71
2023/08/23 13:15:43;;;;;;;3.63;1.93;;;33.40;53.50;;;;;;4918425;29;20504;-72
2023/08/23 13:18:10;;;;;;;2.67;2.17;;;33.10;53.40;;;;;;4918283;29;20915;-72
2023/08/23 13:20:37;;;;;;;2.57;1.60;;;32.80;54.10;;;;;;4918236;29;20804;-72
2023/08/23 13:23:04;;;;;;;2.57;2.30;;;32.70;54.50;;;;;;4918164;29;20865;-72
2023/08/23 13:25:30;;;;;;;2.63;1.90;;;32.70;55.20;;;;;;4918353;29;20476;-72
2023/08/23 13:27:58;;;;;;;2.93;1.80;;;32.70;56.00;;;;;;4918387;29;20457;-72
2023/08/23 13:30:28;;;;;;;2.50;1.63;;;32.70;55.70;;;;;;4918474;29;20457;-72
2023/08/23 13:32:55;;;;;;;2.30;1.80;;;32.90;56.50;;;;;;4918365;29;20540;-72
2023/08/23 13:35:22;;;;;;;3.50;2.00;;;33.20;55.80;;;;;;4918200;29;20488;-72
2023/08/23 13:37:49;;;;;;;2.47;1.50;;;33.50;55.10;;;;;;4918338;29;20463;-72
2023/08/23 13:40:19;;;;;;;4.03;1.70;;;33.80;54.50;;;;;;4917794;29;20459;-71
2023/08/23 13:42:45;;;;;;;2.87;2.10;;;34.20;53.60;;;;;;4917989;29;20449;-72
2023/08/23 13:45:13;;;;;;;2.30;1.80;;;34.40;52.30;;;;;;4918124;29;20448;-71
2023/08/23 13:47:42;;;;;;;2.40;1.83;;;34.70;52.20;;;;;;4917971;29;21009;-71
2023/08/23 13:50:09;;;;;;;2.80;1.50;;;34.90;51.70;;;;;;4918432;29;20889;-71
2023/08/23 13:52:36;;;;;;;4.40;2.03;;;35.10;51.80;;;;;;4918104;29;20531;-72
2023/08/23 13:55:04;;;;;;;2.57;1.50;;;35.20;50.80;;;;;;4918022;29;20490;-72
2023/08/23 13:57:31;;;;;;;3.50;2.30;;;35.20;50.50;;;;;;4917615;29;20531;-71
2023/08/23 13:59:57;;;;;;;2.83;2.00;;;35.30;50.20;;;;;;4917989;29;20626;-72
2023/08/23 14:02:25;;;;;;;2.40;1.50;;;35.50;50.60;;;;;;4917550;29;21048;-72
2023/08/23 14:04:52;;;;;;;2.23;1.70;;;35.60;50.70;;;;;;4917660;29;20872;-72
2023/08/23 14:07:19;;;;;;;5.60;2.57;;;35.70;50.40;;;;;;4917705;29;20468;-72
2023/08/23 14:09:46;;;;;;;2.10;1.60;;;35.80;49.90;;;;;;4918411;29;20463;-72
2023/08/23 14:12:12;;;;;;;3.20;2.07;;;35.80;49.30;;;;;;4917774;29;20910;-71
2023/08/23 14:14:39;;;;;;;2.37;1.97;;;35.90;49.80;;;;;;4917326;29;21001;-71
2023/08/23 14:17:06;;;;;;;2.80;1.53;;;36.10;49.60;;;;;;4917349;29;20486;-71
2023/08/23 14:19:46;;;;;;;2.20;1.80;;;36.20;49.00;;;;;;4917518;29;20444;-72
2023/08/23 14:22:15;;;;;;;2.80;1.80;;;36.30;48.30;;;;;;4917624;29;20851;-71
2023/08/23 14:24:42;;;;;;;2.20;1.60;;;36.40;48.40;;;;;;4918615;29;20429;-71
2023/08/23 14:27:10;;;;;;;2.10;1.50;;;36.40;47.60;;;;;;4917423;29;20472;-72
2023/08/23 14:29:37;;;;;;;2.00;1.47;;;36.20;48.40;;;;;;4917469;29;20456;-72
2023/08/23 14:32:04;;;;;;;2.23;1.50;;;36.20;48.90;;;;;;4917007;29;20919;-71
2023/08/23 14:34:30;;;;;;;4.80;1.90;;;36.30;48.40;;;;;;4917623;29;20988;-72
2023/08/23 14:36:58;;;;;;;4.20;1.70;;;36.20;48.10;;;;;;4917184;29;20468;-71
2023/08/23 14:39:25;;;;;;;1.93;1.60;;;36.00;49.00;;;;;;4917270;29;20452;-71
2023/08/23 14:41:52;;;;;;;4.70;1.97;;;35.80;49.10;;;;;;4917184;29;20448;-71
2023/08/23 14:44:18;;;;;;;3.03;1.60;;;35.70;49.00;;;;;;4917319;29;20454;-71
2023/08/23 14:46:45;;;;;;;1.97;1.57;;;35.80;49.10;;;;;;4916915;29;20472;-71
2023/08/23 14:49:13;;;;;;;2.10;1.60;;;35.80;48.40;;;;;;4917032;29;20452;-70
2023/08/23 14:51:40;;;;;;;2.50;2.00;;;35.70;48.50;;;;;;4916087;29;20820;-70
2023/08/23 14:54:08;;;;;;;2.40;1.80;;;35.80;48.70;;;;;;4916952;29;20460;-70
2023/08/23 14:56:35;;;;;;;2.73;1.30;;;35.90;47.90;;;;;;4916644;29;20510;-71
2023/08/23 14:59:01;;;;;;;3.07;1.70;;;36.00;47.60;;;;;;4916721;29;20984;-71
2023/08/23 15:01:28;;;;;;;2.87;1.60;;;36.30;46.80;;;;;;4917236;29;20484;-70
2023/08/23 15:03:55;;;;;;;2.27;1.67;;;37.00;46.50;;;;;;4916738;29;20876;-71
2023/08/23 15:06:21;;;;;;;2.50;1.53;;;37.80;44.90;;;;;;4916646;29;21005;-71
2023/08/23 15:08:49;;;;;;;3.03;1.60;;;38.40;44.20;;;;;;4917044;29;20538;-71
2023/08/23 15:11:17;;;;;;;2.38;1.60;;;39.40;43.00;;;;;;4916945;29;20455;-71
2023/08/23 15:13:45;;;;;;;2.35;1.33;;;40.40;41.20;;;;;;4917909;29;20279;-71
2023/08/23 15:16:12;;;;;;;2.22;1.20;;;41.40;40.00;;;;;;4916461;29;20273;-71
2023/08/23 15:18:39;;;;;;;2.10;1.40;;;42.30;38.40;;;;;;4916779;29;20248;-71
2023/08/23 15:21:06;;;;;;;2.25;1.35;;;42.80;37.70;;;;;;4916803;29;20208;-71
2023/08/23 15:23:32;;;;;;;2.20;1.23;;;42.80;37.10;;;;;;4916871;29;20259;-73
2023/08/23 15:25:59;;;;;;;2.22;1.30;;;42.50;37.50;;;;;;4916750;29;20224;-71
2023/08/23 15:28:27;;;;;;;3.10;1.88;;;41.90;38.60;;;;;;4916472;29;20614;-71
2023/08/23 15:30:54;;;;;;;2.22;1.30;;;41.30;38.80;;;;;;4916740;29;20379;-72
2023/08/23 15:33:21;;;;;;;2.20;1.48;;;40.20;39.30;;;;;;4916485;29;20636;-71
2023/08/23 15:35:47;;;;;;;2.10;1.50;;;39.70;40.30;;;;;;4916676;29;20315;-72
2023/08/23 15:38:14;;;;;;;1.63;1.25;;;39.30;40.60;;;;;;4916790;29;20397;-72
2023/08/23 15:40:41;;;;;;;2.70;1.70;;;39.20;40.70;;;;;;4916748;29;20733;-71
2023/08/23 15:43:07;;;;;;;4.10;1.70;;;38.60;41.80;;;;;;4916600;29;20455;-72
2023/08/23 15:45:36;;;;;;;2.97;1.67;;;38.30;41.30;;;;;;4916623;29;20516;-72
2023/08/23 15:48:02;;;;;;;1.93;1.23;;;37.50;42.20;;;;;;4916642;29;20455;-72
2023/08/23 15:50:29;;;;;;;2.80;1.87;;;36.70;42.90;;;;;;4916305;29;20874;-72
2023/08/23 15:52:55;;;;;;;3.10;1.50;;;36.00;44.50;;;;;;4916630;29;20880;-72
2023/08/23 15:55:23;;;;;;;1.63;1.10;;;35.20;44.50;;;;;;4916399;29;20904;-72
2023/08/23 15:57:50;;;;;;;3.47;1.70;;;34.60;45.60;;;;;;4916542;29;20499;-72
2023/08/23 16:00:17;;;;;;;3.97;1.83;;;34.10;46.50;;;;;;4916564;29;20471;-71
2023/08/23 16:02:45;;;;;;;5.23;1.50;;;33.90;47.20;;;;;;4917853;29;20451;-71
2023/08/23 16:05:12;;;;;;;3.00;1.67;;;33.80;47.90;;;;;;4919947;29;20440;-71
2023/08/23 16:07:39;;;;;;;3.63;1.77;;;33.50;46.90;;;;;;4919864;29;20449;-72
2023/08/23 16:10:07;;;;;;;3.00;1.70;;;33.40;47.60;;;;;;4919902;29;20452;-72
2023/08/23 16:12:33;;;;;;;3.73;1.40;;;33.30;47.50;;;;;;4919768;29;20460;-73
2023/08/23 16:15:00;;;;;;;2.40;1.40;;;33.20;47.90;;;;;;4919624;29;20535;-73
2023/08/23 16:17:27;;;;;;;4.83;1.43;;;33.10;47.80;;;;;;4943564;23;20878;-74
2023/08/23 16:19:55;;;;;;;4.73;1.50;;;32.90;47.10;;;;;;4919436;29;21050;-73
2023/08/23 16:22:21;;;;;;;1.90;1.30;;;32.60;47.40;;;;;;4919663;29;20453;-74
2023/08/23 16:24:50;;;;;;;2.13;1.33;;;32.30;48.00;;;;;;4919551;29;20449;-74
2023/08/23 16:27:17;;;;;;;2.00;1.37;;;32.20;49.00;;;;;;4919451;29;20559;-74
2023/08/23 16:29:43;;;;;;;2.07;1.60;;;32.20;48.90;;;;;;4919495;29;20460;-74
2023/08/23 16:32:10;;;;;;;2.30;1.43;;;32.10;48.90;;;;;;4919414;29;20460;-74
2023/08/23 16:34:37;;;;;;;1.90;1.40;;;32.00;49.20;;;;;;4919299;29;20452;-74
2023/08/23 16:37:05;;;;;;;2.33;1.43;;;31.80;49.60;;;;;;4919306;29;20539;-73
2023/08/23 16:39:32;;;;;;;2.40;1.43;;;31.70;50.30;;;;;;4919033;29;20448;-74
2023/08/23 16:41:58;;;;;;;2.83;1.50;;;31.60;50.40;;;;;;4918934;29;20939;-76
2023/08/23 16:44:25;;;;;;;2.37;1.70;;;31.50;50.20;;;;;;4919000;29;20939;-74
2023/08/23 16:46:51;;;;;;;2.80;1.60;;;31.30;50.70;;;;;;4919690;29;20473;-72
2023/08/23 16:49:19;;;;;;;4.10;1.40;;;31.20;51.00;;;;;;4919618;29;20461;-74
2023/08/23 16:51:46;;;;;;;2.60;2.17;;;30.80;51.10;;;;;;4919501;29;20453;-74